Time;durP1;ratioP1;P1;durP2;ratioP2;P2;SDS_P1;SDS_P2;PMS_P1;PMS_P2;Temp;Humidity;BMP_temperature;BMP_pressure;BME280_temperature;BME280_humidity;BME280_pressure;Samples;Min_cycle;Max_cycle;Signal;HPM_P1;HPM_P2
2021/12/31 00:00:21;;;;;;;13.57;6.25;;;;;;;5.81;60.78;94404.72;5028143;28;20057;-79
2021/12/31 00:02:46;;;;;;;7.68;5.25;;;;;;;5.75;60.96;94410.25;5022583;28;20103;-79
2021/12/31 00:05:12;;;;;;;11.43;5.97;;;;;;;5.91;60.76;94425.81;5021984;28;20451;-78
2021/12/31 00:07:37;;;;;;;10.38;5.55;;;;;;;5.79;60.18;94382.28;5027884;28;20133;-79
2021/12/31 00:10:04;;;;;;;9.73;5.75;;;;;;;6.11;60.10;94413.59;5021188;28;20108;-78
2021/12/31 00:12:30;;;;;;;9.90;5.20;;;;;;;6.26;59.39;94416.22;5021198;28;20040;-79
2021/12/31 00:14:57;;;;;;;11.40;5.75;;;;;;;6.10;59.31;94406.72;5027515;28;20126;-78
2021/12/31 00:17:23;;;;;;;11.23;6.10;;;;;;;6.21;59.22;94418.88;5019225;28;20029;-79
2021/12/31 00:19:58;;;;;;;11.20;5.47;;;;;;;6.38;58.94;94440.44;5025063;28;20071;-79
2021/12/31 00:24:51;;;;;;;8.90;5.45;;;;;;;6.27;58.69;94421.19;5027977;28;20048;-79
2021/12/31 00:27:17;;;;;;;9.23;6.18;;;;;;;6.50;58.57;94434.84;5028804;28;20120;-80
2021/12/31 00:29:42;;;;;;;9.93;6.45;;;;;;;6.50;58.70;94432.22;5029899;28;20044;-79
2021/12/31 00:32:08;;;;;;;11.70;6.78;;;;;;;6.21;58.55;94409.09;5024037;28;20040;-79
2021/12/31 00:34:33;;;;;;;14.15;7.50;;;;;;;6.35;58.50;94430.44;5030563;28;20065;-79
2021/12/31 00:36:59;;;;;;;11.98;6.13;;;;;;;5.97;58.85;94387.75;5011464;28;20270;-80
2021/12/31 00:39:24;;;;;;;16.95;7.28;;;;;;;5.85;59.57;94432.16;5022836;28;20037;-80
2021/12/31 00:41:49;;;;;;;14.18;7.45;;;;;;;5.67;59.21;94366.75;5023842;28;20033;-79
2021/12/31 00:44:15;;;;;;;15.32;7.28;;;;;;;6.12;59.32;94452.91;5015303;28;20431;-79
2021/12/31 00:46:41;;;;;;;12.23;7.40;;;;;;;6.09;59.25;94448.19;5005730;28;20091;-78
2021/12/31 00:49:06;;;;;;;14.15;7.45;;;;;;;5.26;59.71;94328.31;5025042;28;20029;-78
2021/12/31 00:51:33;;;;;;;13.18;7.80;;;;;;;5.91;60.14;94409.97;5020015;28;20717;-79
2021/12/31 00:53:58;;;;;;;13.77;7.57;;;;;;;5.72;60.08;94390.50;5025350;28;20130;-79
2021/12/31 00:56:24;;;;;;;18.00;7.88;;;;;;;5.98;60.18;94389.34;5027038;28;20517;-79
2021/12/31 00:58:49;;;;;;;9.80;6.72;;;;;;;5.92;60.08;94381.72;5029622;28;20404;-78
2021/12/31 01:01:19;;;;;;;10.75;7.65;;;;;;;5.96;59.95;94373.00;5022885;28;20029;-79
2021/12/31 01:03:45;;;;;;;13.50;7.22;;;;;;;6.12;59.37;94391.38;5013582;28;20747;-79
2021/12/31 01:06:11;;;;;;;13.82;7.22;;;;;;;5.92;58.90;94345.53;5018304;28;20033;-79
2021/12/31 01:08:37;;;;;;;12.73;8.02;;;;;;;6.18;59.20;94401.69;5021326;28;20064;-79
2021/12/31 01:11:03;;;;;;;14.60;9.00;;;;;;;6.14;58.58;94365.50;5025651;28;20041;-79
2021/12/31 01:13:36;;;;;;;14.15;7.88;;;;;;;6.02;58.38;94341.28;5020441;28;20123;-79
2021/12/31 01:16:04;;;;;;;14.85;8.07;;;;;;;6.48;58.34;94398.13;5024274;28;20440;-79
2021/12/31 01:21:15;;;;;;;16.38;7.25;;;;;;;6.47;58.13;94385.97;5019587;28;20467;-79
2021/12/31 01:23:41;;;;;;;13.60;7.82;;;;;;;6.54;57.64;94407.59;5027558;28;20544;-79
2021/12/31 01:26:07;;;;;;;15.98;7.35;;;;;;;6.57;57.89;94409.69;5027850;28;20045;-79
2021/12/31 01:28:33;;;;;;;15.57;8.35;;;;;;;6.52;57.71;94387.78;5023642;28;20048;-79
2021/12/31 01:30:58;;;;;;;14.63;6.80;;;;;;;6.29;57.65;94376.03;5025427;28;20559;-79
2021/12/31 01:33:24;;;;;;;11.85;7.03;;;;;;;6.37;57.83;94399.22;5003780;28;20048;-80
2021/12/31 01:35:50;;;;;;;14.13;7.28;;;;;;;6.07;57.51;94359.75;5024576;28;20029;-79
2021/12/31 01:38:16;;;;;;;11.90;6.82;;;;;;;6.27;57.74;94438.91;5025200;28;20525;-79
2021/12/31 01:40:42;;;;;;;11.45;5.47;;;;;;;5.54;59.52;94430.63;5016680;28;20052;-79
2021/12/31 01:43:08;;;;;;;12.23;5.95;;;;;;;5.64;59.50;94406.84;5016731;28;20104;-78
2021/12/31 01:45:44;;;;;;;10.90;5.60;;;;;;;5.31;59.96;94400.31;5022789;28;20021;-78
2021/12/31 01:48:23;;;;;;;6.20;5.15;;;;;;;5.54;60.04;94422.69;5024284;28;20044;-79
2021/12/31 01:50:49;;;;;;;10.00;5.13;;;;;;;5.24;61.30;94431.44;5023484;28;20048;-79
2021/12/31 01:53:16;;;;;;;10.60;5.60;;;;;;;5.31;61.41;94442.53;5017311;28;20095;-79
2021/12/31 01:55:42;;;;;;;11.52;6.38;;;;;;;5.33;61.27;94437.00;5021940;28;20052;-79
2021/12/31 01:58:09;;;;;;;11.07;5.95;;;;;;;5.00;61.67;94425.91;5016732;28;20562;-79
2021/12/31 02:00:42;;;;;;;13.60;6.35;;;;;;;4.97;62.50;94444.88;5024511;28;20065;-78
2021/12/31 02:03:07;;;;;;;13.05;5.00;;;;;;;4.97;62.62;94436.97;5011133;28;20589;-79
2021/12/31 02:05:33;;;;;;;9.38;5.10;;;;;;;5.01;62.47;94426.69;5001505;28;20094;-80
2021/12/31 02:07:59;;;;;;;10.90;6.38;;;;;;;4.97;62.51;94407.97;5027281;28;20052;-79
2021/12/31 02:10:25;;;;;;;10.20;5.85;;;;;;;4.94;62.14;94416.41;5018268;28;20048;-80
2021/12/31 02:12:53;;;;;;;11.32;6.15;;;;;;;5.00;62.66;94441.72;5016897;28;20037;-80
2021/12/31 02:15:19;;;;;;;10.68;7.03;;;;;;;5.03;62.66;94438.56;5023751;28;20033;-80
2021/12/31 02:17:51;;;;;;;10.57;6.43;;;;;;;4.82;62.74;94404.53;5022633;28;20090;-80
2021/12/31 02:20:19;;;;;;;11.52;6.38;;;;;;;4.79;63.49;94429.59;5002340;28;20041;-80
2021/12/31 02:23:04;;;;;;;11.77;6.60;;;;;;;4.88;63.09;94443.81;5022011;28;20037;-79
2021/12/31 02:25:31;;;;;;;15.10;6.50;;;;;;;4.55;63.61;94413.44;5009729;28;20454;-79
2021/12/31 02:27:56;;;;;;;10.38;6.57;;;;;;;4.62;63.62;94421.91;5024891;28;20047;-79
2021/12/31 02:30:21;;;;;;;13.10;7.45;;;;;;;4.75;63.99;94448.81;4997770;28;20573;-80
2021/12/31 02:32:47;;;;;;;11.43;5.90;;;;;;;4.68;63.90;94449.06;5020865;28;20041;-79
2021/12/31 02:35:14;;;;;;;12.32;5.40;;;;;;;4.58;64.43;94454.28;5028798;28;20044;-79
2021/12/31 02:37:40;;;;;;;12.05;6.10;;;;;;;4.49;64.91;94451.38;5028734;28;20052;-78
2021/12/31 02:40:17;;;;;;;13.68;6.85;;;;;;;4.52;63.83;94418.44;5018156;28;20040;-79
2021/12/31 02:42:43;;;;;;;11.15;6.13;;;;;;;4.69;63.21;94426.94;5010920;28;20764;-78
2021/12/31 02:45:10;;;;;;;9.60;5.55;;;;;;;4.78;63.02;94443.81;5016161;28;22912;-79
2021/12/31 02:47:42;;;;;;;11.88;5.47;;;;;;;4.73;63.47;94459.59;5022576;28;20460;-79
2021/12/31 02:50:11;;;;;;;14.43;6.25;;;;;;;4.57;63.35;94453.50;5032414;28;20033;-80
2021/12/31 02:52:36;;;;;;;12.38;5.75;;;;;;;4.28;63.89;94434.69;5020499;28;20391;-80
2021/12/31 02:55:02;;;;;;;13.70;6.13;;;;;;;4.04;64.81;94435.38;5019938;28;20087;-78
2021/12/31 02:57:27;;;;;;;10.93;6.30;;;;;;;4.27;64.59;94471.81;5022837;28;20037;-79
2021/12/31 02:59:53;;;;;;;10.65;6.00;;;;;;;3.94;64.89;94457.19;5027189;28;20108;-79
2021/12/31 03:02:24;;;;;;;11.80;5.40;;;;;;;4.14;64.94;94467.81;5012449;28;20036;-80
2021/12/31 03:04:51;;;;;;;10.68;5.50;;;;;;;3.61;65.88;94447.00;5025605;28;20088;-78
2021/12/31 03:07:18;;;;;;;10.10;4.85;;;;;;;3.65;66.66;94471.75;5007487;28;20035;-79
2021/12/31 03:09:47;;;;;;;10.77;5.50;;;;;;;3.61;66.75;94481.19;5022278;28;20033;-80
2021/12/31 03:12:14;;;;;;;11.35;5.90;;;;;;;3.53;67.26;94473.75;5025360;28;20516;-79
2021/12/31 03:14:45;;;;;;;10.68;5.60;;;;;;;3.56;67.20;94481.16;5023282;28;20048;-79
2021/12/31 03:17:13;;;;;;;9.60;5.03;;;;;;;3.40;67.16;94444.22;5019833;28;20509;-79
2021/12/31 03:19:38;;;;;;;8.57;5.55;;;;;;;3.43;66.62;94450.03;5011697;28;20516;-79
2021/12/31 03:22:05;;;;;;;10.95;5.82;;;;;;;3.51;66.99;94481.13;5025550;28;20027;-79
2021/12/31 03:24:30;;;;;;;8.45;4.75;;;;;;;3.45;67.10;94464.50;5026569;28;20048;-79
2021/12/31 03:26:56;;;;;;;11.48;6.22;;;;;;;3.55;66.93;94475.09;5027806;28;20036;-78
2021/12/31 03:29:21;;;;;;;10.88;5.80;;;;;;;3.57;66.47;94499.31;5019625;28;20029;-79
2021/12/31 03:31:48;;;;;;;10.93;5.57;;;;;;;3.68;65.74;94492.28;5022871;28;20034;-77
2021/12/31 03:34:16;;;;;;;10.05;5.28;;;;;;;3.59;65.55;94478.00;5027457;28;20217;-78
2021/12/31 03:36:42;;;;;;;13.98;5.32;;;;;;;3.61;65.98;94491.72;5025663;28;20542;-78
2021/12/31 03:39:08;;;;;;;7.40;5.22;;;;;;;3.62;65.53;94477.53;5025049;28;20036;-78
2021/12/31 03:41:34;;;;;;;8.05;5.45;;;;;;;3.96;64.35;94486.69;5030451;28;20040;-79
2021/12/31 03:43:59;;;;;;;12.25;5.47;;;;;;;4.15;63.53;94511.53;5018167;28;20425;-78
2021/12/31 03:46:25;;;;;;;10.13;6.22;;;;;;;3.69;63.00;94441.25;5029658;28;20029;-79
2021/12/31 03:48:50;;;;;;;7.97;5.35;;;;;;;3.98;62.61;94481.13;5026919;28;20439;-78
2021/12/31 03:51:15;;;;;;;9.68;5.28;;;;;;;4.44;61.83;94524.31;5012643;28;20509;-78
2021/12/31 03:53:41;;;;;;;7.15;4.72;;;;;;;4.44;61.24;94511.16;5019271;28;20571;-79
2021/12/31 03:56:06;;;;;;;8.50;5.03;;;;;;;4.67;60.42;94523.88;5027871;28;20128;-78
2021/12/31 03:58:32;;;;;;;6.88;5.38;;;;;;;4.67;60.22;94515.97;5021895;28;20033;-79
2021/12/31 04:00:57;;;;;;;9.70;4.88;;;;;;;4.65;59.74;94492.50;5024821;28;20033;-79
2021/12/31 04:03:23;;;;;;;9.30;4.82;;;;;;;4.57;59.59;94497.50;5022574;28;20505;-79
2021/12/31 04:05:50;;;;;;;9.82;5.13;;;;;;;4.36;59.47;94477.38;5027384;28;20037;-79
2021/12/31 04:08:21;;;;;;;10.35;4.63;;;;;;;4.27;60.07;94508.66;5025006;28;20040;-79
2021/12/31 04:10:46;;;;;;;6.45;4.18;;;;;;;4.34;59.40;94474.25;5024476;28;20442;-79
2021/12/31 04:13:12;;;;;;;12.48;5.22;;;;;;;4.09;59.31;94445.94;5027910;28;20036;-79
2021/12/31 04:15:37;;;;;;;12.25;5.03;;;;;;;4.50;59.37;94499.59;5021580;28;20067;-79
2021/12/31 04:18:03;;;;;;;7.07;4.78;;;;;;;4.28;59.20;94466.28;5023540;28;20025;-80
2021/12/31 04:20:38;;;;;;;9.48;6.78;;;;;;;4.56;59.16;94514.34;5014472;28;20581;-80
2021/12/31 04:23:14;;;;;;;8.85;5.35;;;;;;;4.67;59.48;94511.50;5013367;28;20037;-80
2021/12/31 04:25:41;;;;;;;10.20;5.20;;;;;;;4.67;58.70;94500.16;5022961;28;20532;-79
2021/12/31 04:28:06;;;;;;;9.95;5.00;;;;;;;4.81;58.55;94503.88;5027433;28;20068;-79
2021/12/31 04:30:32;;;;;;;10.60;5.85;;;;;;;4.44;58.37;94466.38;5028923;28;20691;-79
2021/12/31 04:32:58;;;;;;;11.77;5.10;;;;;;;4.81;58.32;94509.16;5026212;28;20044;-79
2021/12/31 04:35:24;;;;;;;10.48;5.00;;;;;;;4.62;58.22;94479.06;5026494;28;20038;-79
2021/12/31 04:37:49;;;;;;;8.43;4.93;;;;;;;4.86;57.61;94485.44;5023798;28;20477;-79
2021/12/31 04:40:15;;;;;;;8.73;4.22;;;;;;;5.00;57.38;94515.53;5015823;28;20447;-79
2021/12/31 04:42:44;;;;;;;7.57;4.07;;;;;;;5.01;57.08;94517.13;5010130;28;20574;-79
2021/12/31 04:45:12;;;;;;;7.20;4.55;;;;;;;5.00;56.81;94531.34;4994191;28;20033;-80
2021/12/31 04:47:38;;;;;;;10.00;5.80;;;;;;;4.58;58.04;94534.13;5027701;28;20029;-79
2021/12/31 04:50:04;;;;;;;8.65;5.57;;;;;;;4.20;58.80;94523.91;5027541;28;20496;-78
2021/12/31 04:52:30;;;;;;;9.15;4.38;;;;;;;4.72;58.10;94539.72;5027393;28;20072;-80
2021/12/31 04:54:56;;;;;;;6.95;4.63;;;;;;;4.87;57.49;94536.31;5025219;28;20029;-78
2021/12/31 04:57:24;;;;;;;7.93;5.15;;;;;;;4.94;56.02;94502.63;5014624;28;21328;-79
2021/12/31 04:59:50;;;;;;;6.95;4.53;;;;;;;4.46;56.67;94466.91;5025014;28;21071;-79
2021/12/31 05:02:15;;;;;;;7.40;4.57;;;;;;;4.62;57.35;94521.22;5025164;28;20115;-80
2021/12/31 05:04:40;;;;;;;8.75;5.70;;;;;;;4.56;57.09;94506.44;5024968;28;20044;-80
2021/12/31 05:07:06;;;;;;;9.05;4.57;;;;;;;4.56;57.46;94509.88;5027534;28;20060;-78
2021/12/31 05:09:32;;;;;;;7.63;3.78;;;;;;;4.56;57.26;94498.53;5022233;28;20033;-79
2021/12/31 05:11:57;;;;;;;8.63;4.68;;;;;;;4.64;57.07;94505.97;5022768;28;20044;-78
2021/12/31 05:14:23;;;;;;;7.78;4.45;;;;;;;4.90;56.45;94526.06;5025076;28;20457;-78
2021/12/31 05:16:48;;;;;;;8.63;5.03;;;;;;;4.88;56.28;94515.00;5026840;28;20044;-79
2021/12/31 05:19:13;;;;;;;6.43;3.80;;;;;;;4.97;56.35;94534.50;5021157;28;20633;-77
2021/12/31 05:21:40;;;;;;;6.22;4.10;;;;;;;4.92;55.77;94505.50;5026323;28;20048;-83
2021/12/31 05:24:06;;;;;;;7.05;4.47;;;;;;;4.94;55.43;94508.66;5024104;28;20036;-81
2021/12/31 05:26:31;;;;;;;8.50;4.07;;;;;;;5.07;55.52;94516.09;5023297;28;20052;-80
2021/12/31 05:28:57;;;;;;;7.75;4.47;;;;;;;4.82;55.54;94504.69;5027670;28;20748;-80
2021/12/31 05:31:22;;;;;;;7.85;4.35;;;;;;;4.61;56.04;94503.81;5009456;28;20135;-80
2021/12/31 05:33:47;;;;;;;7.20;4.68;;;;;;;4.79;56.15;94506.00;5026969;28;20375;-80
2021/12/31 05:36:13;;;;;;;8.63;4.25;;;;;;;4.92;55.65;94525.78;5020317;28;20215;-80
2021/12/31 05:38:39;;;;;;;9.13;4.60;;;;;;;4.68;56.17;94504.38;5017183;28;20469;-79
2021/12/31 05:41:05;;;;;;;8.02;3.85;;;;;;;4.52;56.12;94471.13;5021696;28;20049;-79
2021/12/31 05:43:31;;;;;;;7.70;4.05;;;;;;;4.79;55.96;94492.84;5024862;28;20025;-80
2021/12/31 05:45:56;;;;;;;6.50;4.28;;;;;;;4.80;56.02;94494.41;4998674;28;20378;-79
2021/12/31 05:48:22;;;;;;;6.13;3.58;;;;;;;4.70;55.59;94481.97;5023714;28;20051;-80
2021/12/31 05:50:47;;;;;;;6.50;5.25;;;;;;;5.04;55.30;94513.19;5023555;28;20094;-80
2021/12/31 05:53:13;;;;;;;6.95;4.32;;;;;;;4.95;55.07;94512.88;5023036;28;20536;-80
2021/12/31 05:55:38;;;;;;;8.82;4.25;;;;;;;5.01;55.42;94535.56;5010806;28;20112;-80
2021/12/31 05:58:04;;;;;;;7.10;5.15;;;;;;;4.68;55.69;94515.72;5021776;28;20050;-80
2021/12/31 06:00:29;;;;;;;7.47;4.53;;;;;;;4.65;56.45;94549.69;5024286;28;20076;-80
2021/12/31 06:02:58;;;;;;;11.98;5.05;;;;;;;4.69;56.07;94550.78;5007896;28;20033;-79
2021/12/31 06:05:25;;;;;;;12.95;7.75;;;;;;;4.73;57.00;94566.84;5024204;28;20501;-80
2021/12/31 06:07:52;;;;;;;15.55;6.88;;;;;;;4.41;57.37;94527.44;5021293;28;20045;-80
2021/12/31 06:10:17;;;;;;;15.40;8.23;;;;;;;4.62;57.24;94545.72;5023632;28;20040;-80
2021/12/31 06:12:43;;;;;;;11.13;5.85;;;;;;;4.60;56.83;94532.00;5020812;28;20037;-80
2021/12/31 06:15:10;;;;;;;18.88;9.27;;;;;;;4.81;56.64;94559.22;5027738;28;20075;-80
2021/12/31 06:17:37;;;;;;;20.15;11.63;;;;;;;4.83;56.77;94540.53;5024143;28;20618;-80
2021/12/31 06:20:04;;;;;;;16.00;8.02;;;;;;;5.02;55.76;94531.88;5009912;28;20135;-80
2021/12/31 06:22:31;;;;;;;14.38;7.47;;;;;;;4.89;56.03;94539.50;5017449;28;20033;-81
2021/12/31 06:24:57;;;;;;;15.85;7.32;;;;;;;4.94;56.14;94560.63;5024192;28;20025;-80
2021/12/31 06:27:22;;;;;;;11.93;7.00;;;;;;;4.96;55.81;94540.84;5022619;28;20044;-80
2021/12/31 06:29:47;;;;;;;10.68;6.32;;;;;;;4.85;56.14;94568.22;5023032;28;20143;-80
2021/12/31 06:32:13;;;;;;;10.48;6.07;;;;;;;4.85;56.27;94549.75;5026020;28;20038;-81
2021/12/31 06:34:39;;;;;;;16.10;9.07;;;;;;;5.14;56.09;94574.63;5021324;28;20124;-80
2021/12/31 06:37:04;;;;;;;38.05;17.35;;;;;;;5.20;56.33;94579.91;5023513;28;20025;-80
2021/12/31 06:39:30;;;;;;;20.52;11.20;;;;;;;4.62;57.41;94566.81;5020031;28;20831;-80
2021/12/31 06:41:55;;;;;;;36.70;21.40;;;;;;;5.01;56.67;94559.31;5024897;28;20128;-80
2021/12/31 06:44:21;;;;;;;31.85;16.45;;;;;;;5.14;56.90;94574.63;5023284;28;20040;-81
2021/12/31 06:46:47;;;;;;;12.23;6.78;;;;;;;4.90;56.78;94562.16;5003757;28;20051;-80
2021/12/31 06:49:12;;;;;;;10.48;5.60;;;;;;;4.96;57.66;94590.13;5022735;28;20397;-80
2021/12/31 06:51:38;;;;;;;8.70;4.75;;;;;;;4.91;57.98;94569.03;5020998;28;20051;-80
2021/12/31 06:54:03;;;;;;;4.47;3.00;;;;;;;4.95;57.71;94585.91;5021292;28;20041;-80
2021/12/31 06:56:29;;;;;;;2.97;1.63;;;;;;;4.73;58.55;94580.81;5020310;28;20682;-80
2021/12/31 06:58:54;;;;;;;2.72;1.80;;;;;;;4.62;58.85;94566.00;5022497;28;20037;-79
2021/12/31 07:01:21;;;;;;;2.75;1.98;;;;;;;4.57;59.53;94569.41;5006725;28;20026;-80
2021/12/31 07:03:46;;;;;;;2.05;1.85;;;;;;;4.80;59.56;94572.66;5026693;28;20363;-80
2021/12/31 07:06:12;;;;;;;2.10;1.60;;;;;;;4.66;59.53;94583.69;5018279;28;20087;-80
2021/12/31 07:08:38;;;;;;;3.63;2.10;;;;;;;4.62;59.49;94568.66;5021739;28;20420;-80
2021/12/31 07:11:04;;;;;;;2.08;1.70;;;;;;;4.53;60.30;94584.16;5023862;28;20040;-79
2021/12/31 07:13:29;;;;;;;3.38;2.08;;;;;;;4.36;61.21;94586.16;5021896;28;20355;-79
2021/12/31 07:15:55;;;;;;;2.63;1.70;;;;;;;4.18;62.14;94570.75;5021395;28;20104;-80
2021/12/31 07:18:21;;;;;;;2.42;1.83;;;;;;;3.90;62.62;94545.59;5019920;28;20382;-80
2021/12/31 07:20:48;;;;;;;1.88;1.73;;;;;;;4.16;63.01;94583.41;5021176;28;20033;-79
2021/12/31 07:23:16;;;;;;;2.15;1.70;;;;;;;4.05;63.47;94593.06;5018593;28;20501;-79
2021/12/31 07:25:42;;;;;;;3.88;1.95;;;;;;;3.71;64.10;94552.28;5028578;28;20559;-79
2021/12/31 07:28:10;;;;;;;2.70;1.98;;;;;;;3.88;64.39;94576.63;5023845;28;20037;-80
2021/12/31 07:30:36;;;;;;;3.05;2.38;;;;;;;4.04;64.57;94591.47;5025950;28;20037;-79
2021/12/31 07:33:01;;;;;;;2.60;2.08;;;;;;;4.12;64.08;94577.84;5025910;28;20071;-79
2021/12/31 07:35:27;;;;;;;2.33;1.88;;;;;;;3.97;64.15;94555.88;5011547;28;20206;-80
2021/12/31 07:37:55;;;;;;;1.65;1.55;;;;;;;4.33;63.79;94583.25;5025315;28;20087;-79
2021/12/31 07:40:38;;;;;;;3.50;1.98;;;;;;;4.35;63.20;94578.53;5024766;28;20032;-79
2021/12/31 07:43:07;;;;;;;3.72;2.17;;;;;;;4.44;62.65;94572.53;5027322;28;20033;-79
2021/12/31 07:45:32;;;;;;;3.97;1.70;;;;;;;4.35;61.83;94533.75;5007935;28;20041;-80
2021/12/31 07:47:59;;;;;;;2.17;1.70;;;;;;;4.59;61.72;94561.28;5005990;28;21072;-80
2021/12/31 07:50:24;;;;;;;1.88;1.60;;;;;;;4.83;61.11;94572.97;5025258;28;20029;-80
2021/12/31 07:52:49;;;;;;;2.40;1.58;;;;;;;4.65;60.77;94566.28;5026427;28;20105;-80
2021/12/31 07:55:15;;;;;;;5.20;2.10;;;;;;;4.46;61.61;94553.81;5025672;28;20663;-80
2021/12/31 07:57:40;;;;;;;1.77;1.67;;;;;;;4.67;61.38;94547.59;5025464;28;20515;-80
2021/12/31 08:00:06;;;;;;;1.63;1.40;;;;;;;5.01;60.91;94593.56;5021110;28;20041;-81
2021/12/31 08:02:32;;;;;;;2.35;1.70;;;;;;;5.03;60.50;94594.13;5010952;28;20108;-80
2021/12/31 08:04:57;;;;;;;3.45;1.33;;;;;;;5.04;60.29;94594.91;5026457;28;20041;-80
2021/12/31 08:07:23;;;;;;;1.95;1.67;;;;;;;5.00;60.33;94599.09;5023601;28;20032;-80
2021/12/31 08:09:48;;;;;;;1.83;1.55;;;;;;;4.92;60.74;94592.50;5025783;28;20021;-80
2021/12/31 08:12:13;;;;;;;3.00;1.50;;;;;;;5.11;60.20;94588.34;5023109;28;20376;-80
2021/12/31 08:14:39;;;;;;;4.25;1.88;;;;;;;5.11;59.54;94558.53;5011535;28;20120;-80
2021/12/31 08:17:04;;;;;;;3.30;1.70;;;;;;;5.26;59.46;94581.50;5024361;28;20091;-79
2021/12/31 08:19:30;;;;;;;2.58;1.75;;;;;;;5.26;59.67;94592.06;5026587;28;20144;-80
2021/12/31 08:21:55;;;;;;;1.73;1.23;;;;;;;5.35;59.34;94580.72;5024910;28;20041;-78
2021/12/31 08:24:21;;;;;;;1.90;1.50;;;;;;;5.50;59.01;94588.69;5009390;28;20044;-79
2021/12/31 08:26:46;;;;;;;1.55;1.40;;;;;;;5.18;59.12;94521.38;5021615;28;20033;-79
2021/12/31 08:29:12;;;;;;;1.90;1.42;;;;;;;5.48;58.78;94553.84;5014257;28;20358;-80
2021/12/31 08:31:41;;;;;;;3.70;1.67;;;;;;;5.79;58.79;94596.09;5024091;28;20356;-80
2021/12/31 08:34:08;;;;;;;3.50;1.65;;;;;;;5.76;58.46;94570.22;5022898;28;20120;-79
2021/12/31 08:36:35;;;;;;;2.63;1.70;;;;;;;5.91;57.98;94584.22;5023691;28;20040;-80
2021/12/31 08:39:00;;;;;;;2.40;1.70;;;;;;;5.96;57.70;94571.00;5025101;28;20098;-80
2021/12/31 08:41:25;;;;;;;2.67;1.70;;;;;;;5.90;57.62;94568.63;5010948;28;20456;-80
2021/12/31 08:43:51;;;;;;;2.00;1.77;;;;;;;6.20;57.12;94567.84;5005457;28;20036;-80
2021/12/31 08:46:17;;;;;;;19.42;7.30;;;;;;;5.95;57.41;94564.16;5024435;28;20017;-80
2021/12/31 08:48:42;;;;;;;11.15;6.95;;;;;;;5.74;58.13;94562.56;5017921;28;20037;-80
2021/12/31 08:51:07;;;;;;;14.85;7.28;;;;;;;5.16;59.67;94561.19;5010490;28;20136;-80
2021/12/31 08:53:33;;;;;;;20.38;8.93;;;;;;;5.48;59.81;94579.44;5022564;28;20510;-79
2021/12/31 08:55:58;;;;;;;62.50;18.48;;;;;;;5.46;59.25;94555.97;5026432;28;20099;-80
2021/12/31 08:58:24;;;;;;;18.73;8.73;;;;;;;5.64;58.58;94559.13;5024048;28;20057;-79
2021/12/31 09:00:49;;;;;;;18.50;7.15;;;;;;;5.43;58.61;94542.50;5011185;28;20029;-80
2021/12/31 09:03:15;;;;;;;13.88;7.90;;;;;;;5.96;57.82;94572.88;5027258;28;20059;-80
2021/12/31 09:05:40;;;;;;;13.55;7.28;;;;;;;5.76;57.89;94539.34;5010081;28;20308;-80
2021/12/31 09:08:05;;;;;;;13.85;8.35;;;;;;;5.69;58.85;94577.59;5027021;28;20080;-80
2021/12/31 09:10:31;;;;;;;15.00;8.48;;;;;;;5.88;58.23;94549.63;5018629;28;20025;-80
2021/12/31 09:12:57;;;;;;;15.10;8.27;;;;;;;5.67;58.08;94554.13;5024058;28;20473;-80
2021/12/31 09:15:22;;;;;;;14.40;7.75;;;;;;;5.37;59.10;94530.38;5022182;28;20920;-80
2021/12/31 09:17:48;;;;;;;14.63;8.63;;;;;;;5.58;58.77;94563.59;5026276;28;20069;-80
2021/12/31 09:20:14;;;;;;;15.73;8.30;;;;;;;5.63;59.31;94570.75;5020690;28;20409;-79
2021/12/31 09:22:40;;;;;;;22.55;10.40;;;;;;;6.10;57.86;94538.78;5020690;28;21033;-80
2021/12/31 09:25:06;;;;;;;66.95;20.08;;;;;;;6.59;56.88;94558.22;5022633;28;20025;-80
2021/12/31 09:27:31;;;;;;;20.35;10.27;;;;;;;6.85;55.83;94546.47;5019541;28;20191;-81
2021/12/31 09:29:57;;;;;;;14.85;8.50;;;;;;;6.05;57.46;94538.78;5007706;28;20869;-79
2021/12/31 09:32:22;;;;;;;16.30;9.25;;;;;;;6.61;57.38;94555.31;5021592;28;20037;-80
2021/12/31 09:34:48;;;;;;;14.45;8.35;;;;;;;6.20;58.10;94562.56;5022267;28;20127;-80
2021/12/31 09:37:15;;;;;;;15.32;7.88;;;;;;;6.42;57.89;94542.69;5023046;28;20040;-80
2021/12/31 09:39:41;;;;;;;15.75;8.88;;;;;;;7.18;55.94;94557.44;5013556;28;20045;-80
2021/12/31 09:42:07;;;;;;;15.10;7.50;;;;;;;6.93;55.83;94541.69;5022065;28;20040;-80
2021/12/31 09:44:34;;;;;;;15.00;8.02;;;;;;;6.62;56.66;94551.59;5008611;28;20040;-80
2021/12/31 09:47:00;;;;;;;12.68;8.25;;;;;;;6.99;56.36;94546.69;5007745;28;20255;-80
2021/12/31 09:49:25;;;;;;;18.08;9.25;;;;;;;7.20;55.64;94500.53;5017705;28;20541;-80
2021/12/31 09:51:51;;;;;;;13.13;7.22;;;;;;;6.91;55.97;94475.06;5017762;28;20112;-80
2021/12/31 09:54:22;;;;;;;9.55;5.28;;;;;;;7.54;55.41;94524.38;5011456;28;20036;-80
2021/12/31 09:56:47;;;;;;;7.72;4.80;;;;;;;7.67;54.86;94518.47;5019325;28;20037;-80
2021/12/31 09:59:13;;;;;;;5.78;3.15;;;;;;;7.81;54.63;94502.75;5022986;28;20508;-80
2021/12/31 10:01:53;;;;;;;9.75;4.03;;;;;;;7.82;54.39;94511.50;5023144;28;20028;-80
2021/12/31 10:04:18;;;;;;;6.45;3.05;;;;;;;7.91;54.21;94488.63;5014919;28;20495;-80
2021/12/31 10:07:06;;;;;;;4.20;2.95;;;;;;;8.10;54.49;94508.03;5016650;28;20148;-80
2021/12/31 10:09:32;;;;;;;5.20;3.45;;;;;;;8.01;54.59;94504.41;5025847;28;20524;-82
2021/12/31 10:11:58;;;;;;;6.05;2.95;;;;;;;7.83;54.75;94490.00;5016117;28;20053;-80
2021/12/31 10:14:37;;;;;;;4.55;2.55;;;;;;;8.19;54.25;94501.06;5013550;28;20040;-81
2021/12/31 10:17:07;;;;;;;4.72;2.55;;;;;;;8.30;53.77;94507.03;5000082;28;20519;-81
2021/12/31 10:19:32;;;;;;;4.22;2.00;;;;;;;8.15;54.18;94469.03;5020455;28;20051;-82
2021/12/31 10:21:58;;;;;;;3.67;2.42;;;;;;;8.42;53.77;94499.47;5021518;28;20545;-80
2021/12/31 10:24:35;;;;;;;3.88;1.52;;;;;;;8.40;54.02;94498.97;4992350;28;20155;-81
2021/12/31 10:27:20;;;;;;;2.55;1.88;;;;;;;8.35;53.95;94483.13;5000199;28;20512;-80
2021/12/31 10:30:05;;;;;;;4.00;2.50;;;;;;;8.11;55.14;94469.88;5001084;28;21228;-80
2021/12/31 10:32:35;;;;;;;3.65;2.58;;;;;;;8.28;55.26;94487.97;5020906;28;20048;-80
2021/12/31 10:35:12;;;;;;;2.50;2.20;;;;;;;8.21;55.42;94476.94;5022131;28;20045;-80
2021/12/31 10:37:49;;;;;;;4.13;2.70;;;;;;;8.14;55.88;94450.75;5019578;28;20029;-80
2021/12/31 10:40:33;;;;;;;2.67;2.17;;;;;;;8.44;56.02;94474.28;5017839;28;20417;-81
2021/12/31 10:43:17;;;;;;;3.22;1.95;;;;;;;8.32;56.68;94468.56;5019537;28;20080;-80
2021/12/31 10:46:01;;;;;;;3.60;2.85;;;;;;;8.31;57.12;94471.53;5011140;28;20034;-81
2021/12/31 10:49:09;;;;;;;6.50;3.50;;;;;;;7.79;58.00;94403.47;5008577;28;20037;-80
2021/12/31 10:51:44;;;;;;;3.67;2.15;;;;;;;8.16;57.81;94456.59;4967846;28;20575;-80
2021/12/31 10:54:29;;;;;;;2.85;2.10;;;;;;;8.28;58.21;94462.25;5021339;28;20491;-81
2021/12/31 10:57:00;;;;;;;2.67;1.63;;;;;;;8.29;57.98;94450.59;5002826;28;20611;-80
2021/12/31 10:59:26;;;;;;;2.72;1.60;;;;;;;8.21;58.13;94461.03;5002173;28;20045;-80
2021/12/31 11:01:52;;;;;;;5.65;2.38;;;;;;;7.96;58.01;94435.59;5013496;28;20056;-80
2021/12/31 11:04:21;;;;;;;4.03;1.98;;;;;;;8.10;57.83;94455.03;5025719;28;20477;-80
2021/12/31 11:06:47;;;;;;;2.10;1.85;;;;;;;8.11;58.31;94440.75;5003187;28;20025;-79
2021/12/31 11:09:14;;;;;;;3.33;2.10;;;;;;;8.13;58.26;94449.97;5024800;28;20033;-80
2021/12/31 11:11:44;;;;;;;2.28;1.70;;;;;;;8.24;57.89;94471.84;5024773;28;20120;-79
2021/12/31 11:14:11;;;;;;;4.63;2.28;;;;;;;7.98;58.13;94436.09;5016441;28;20037;-79
2021/12/31 11:16:39;;;;;;;4.68;2.28;;;;;;;8.17;58.13;94446.78;5030360;28;20055;-80
2021/12/31 11:19:10;;;;;;;3.22;2.28;;;;;;;8.16;58.17;94464.53;5007438;28;20058;-81
2021/12/31 11:21:37;;;;;;;3.65;2.35;;;;;;;8.00;58.38;94428.66;5029194;28;20040;-80
2021/12/31 11:24:30;;;;;;;3.42;2.28;;;;;;;8.29;58.28;94471.78;5029254;28;20041;-80
2021/12/31 11:26:56;;;;;;;4.03;2.55;;;;;;;8.32;58.79;94465.91;5009765;28;20041;-80
2021/12/31 11:29:22;;;;;;;3.95;2.10;;;;;;;8.12;58.50;94466.13;5023482;28;20037;-79
2021/12/31 11:31:47;;;;;;;4.38;2.47;;;;;;;8.16;58.98;94467.19;5018442;28;20044;-79
2021/12/31 11:34:14;;;;;;;4.32;3.22;;;;;;;8.21;58.91;94461.03;5025570;28;20618;-79
2021/12/31 11:36:54;;;;;;;4.03;2.28;;;;;;;8.26;58.74;94476.88;5020054;28;20076;-79
2021/12/31 11:39:29;;;;;;;4.43;3.20;;;;;;;8.11;58.66;94446.03;5014657;28;20611;-80
2021/12/31 11:42:07;;;;;;;4.53;2.90;;;;;;;8.34;58.78;94463.00;5002061;28;20128;-79